Terminal Aerodrome Forecast
Issued by NWS Tampa Bay Area, FL

Home | Current Version | Previous Version | Text Only | Print | Product List | Glossary On
Versions: 1 2 3 4 5 6 7 8 9 10 11 12 13 14 15 16 17 18 19 20 21 22 23
000
FTUS42 KTBW 190200 AAA
TAFSRQ
TAF AMD
KSRQ 190238Z 1903/1924 18007KT P6SM SCT025 SCT050 BKN130
      TEMPO 1903/1905 BKN025
     FM190500 21012KT P6SM VCSH SCT020 BKN050
      TEMPO 1909/1913 BKN020
     FM191300 25013KT P6SM BKN030
     FM191600 27014G24KT P6SM BKN040=

USA.gov is the U.S. government's official web portal to all federal, state and local government web resources and services.